Bonaire, Bonaire

7:07 PM AST on March 29, 2015 (GMT -0400)
Flamingo | | Change Station
CLOSE
Current Station
Airport
Location: Bonaire,
Elevation: 20 ft
Nearby Weather Stations

Elev 20 ft 12.13 °N, 68.28 °W | Updated 7 minutes ago

Partly Cloudy
Partly Cloudy
81 °F
Feels Like 85 °F
N
16
Wind Variable Wind from NE
Gusts 22 mph

Today
High -- | Low -- °F
--% Chance of Precip.
Yesterday
High -- | Low -- °F
Precip. -- in
6:31 AM 6:44 PM
Waxing Gibbous, 75% visible
Pressure 29.92 in
Visibility -9999.0 miles
Clouds
Heat Index 85 °F
Dew Point 72 °F
Humidity 74%
Rainfall 0.00 in
Snow Depth Not available.
UV Not available.
Pollen Not available.
Air Quality Not available.
Flu Activity Not available.
METAR TNCB 292300Z AUTO 05014KT 020V080 //// ////// 27/22 Q1013 NOSIG

More Conditions Fewer Conditions

Pressure 29.92 in
Visibility -9999.0 miles
Clouds
Heat Index 85 °F
Dew Point 72 °F
Humidity 74%
Rainfall 0.00 in
Snow Depth Not available.
UV Not available.
Pollen Not available.
Air Quality Not available.
Flu Activity Not available.
METAR TNCB 292300Z AUTO 05014KT 020V080 //// ////// 27/22 Q1013 NOSIG

More Conditions Fewer Conditions

10-Day Weather Forecast

Almanac

Astronomy

Mar. 29, 2015 Rise Set
Actual Time
Civil Twilight
Nautical Twilight
Astronomical Twilight
Moon
Length of Visible Light
Length of Day
Tomorrow will be .
, % of the Moon is Illuminated

Today's Extremes

Country Highs Country Lows

Community

WunderPhotos

Upload Photos

1,809,378 photos uploaded!

WunderBlogs® & News

Nearby

Air Quality

  Air Quality AQ Index Pollutant
Not available.

Snow Depth

Station Depth Elevation

Earthquake Activity

City Distance Mag. Time & Date
Minimum magnitude displayed is 2.5.

Coastal Water Temperatures

Place Temperature

Stations

Nearby Weather Stations

Station Location Temp. Windchill Dew Point Humidity Wind Precip. Elev Updated Type